Portada
METAR-TAF:

METAR-TAF

Aeropuertos :

Colmenar Viejo, España

latitud: 40-39N, longitud: 003-44W, altitud: -999 m

Observación

El informe se hizo hace 20 horas y 5 minutos, a las 15:00 UTC
Viento 11 kt del norte
Temperatura 10°C
Humedad 57%
Presión 1016 hPa
Visibilidad 10 km o más
Escasas nubes a una altura de 4500 ft
Nubes dispersas a una altura de 6000 ft

METAR: LECV 201500Z 36011KT 9999 FEW045 SCT060 10/02 Q1016

Hora: 12:05 (11:05 UTC)

Pronóstico

El informe se hizo hace 21 horas y 5 minutos, a las 14:00 UTC
Pronóstico válido del 20 a las 15 UTC al 20 a las 24 UTC
Viento 12 kt del norte
Visibilidad 10 km o más
sin nubes por debajo de 1500 m y sin presencia de cumulonimbus.
Probabilidad 40% :
Temporalmente
del 20 a las 15 UTC al 20 a las 18 UTC
Viento 15 kt del norte con ráfagas de 25 kt

TAF: LECV 201400Z 2015/2024 01012KT CAVOK PROB40 TEMPO 2015/2018 01015G25KT

Observaciones y pronósticos meteorológicos de más de 4000 aeropuertos (mensajes METAR y TAF).

Los puntos amarillos y rojos representan las estaciones disponibles.

Ponga el ratón en el punto deseado para ver el nombre de la estación.

Haga clic para ver las observaciones y los pronósticos meteorológicos.

Para cambiar el mapa : haga clic en los botones verdes con una cruz de color negro para hacer un zoom, en el botón verde con un guión para alejar o en las flechas verdes para mapas adyacentes.


METAR-TAF: